createdAt,value
2018-03-22T00:00:42.416Z,2.00
2018-03-22T00:03:08.693Z,1.90
2018-03-22T00:05:35.329Z,2.00
2018-03-22T00:08:01.614Z,1.70
2018-03-22T00:10:27.988Z,1.80
2018-03-22T00:12:54.488Z,1.70
2018-03-22T00:15:20.760Z,1.50
2018-03-22T00:17:47.514Z,1.60
2018-03-22T00:20:13.805Z,1.80
2018-03-22T00:22:40.157Z,1.60
2018-03-22T00:25:06.568Z,2.00
2018-03-22T00:27:32.840Z,1.70
2018-03-22T00:29:59.580Z,1.67
2018-03-22T00:32:25.881Z,1.50
2018-03-22T00:34:52.297Z,1.87
2018-03-22T00:37:18.612Z,1.70
2018-03-22T00:39:44.864Z,1.47
2018-03-22T00:42:11.563Z,1.97
2018-03-22T00:44:37.826Z,1.83
2018-03-22T00:47:04.337Z,1.50
2018-03-22T00:49:30.669Z,1.53
2018-03-22T00:51:56.991Z,1.53
2018-03-22T00:54:23.546Z,1.73
2018-03-22T00:56:49.848Z,1.80
2018-03-22T00:59:16.168Z,1.77
2018-03-22T01:01:42.613Z,1.80
2018-03-22T01:04:08.929Z,1.67
2018-03-22T01:06:35.505Z,1.87
2018-03-22T01:09:01.816Z,1.50
2018-03-22T01:11:28.158Z,1.73
2018-03-22T01:13:54.600Z,1.80
2018-03-22T01:16:20.865Z,1.53
2018-03-22T01:18:47.605Z,1.60
2018-03-22T01:21:13.882Z,1.70
2018-03-22T01:23:40.246Z,1.50
2018-03-22T01:26:06.720Z,1.40
2018-03-22T01:28:32.994Z,1.70
2018-03-22T01:30:59.701Z,1.50
2018-03-22T01:33:25.973Z,1.60
2018-03-22T01:35:52.368Z,1.60
2018-03-22T01:38:18.764Z,1.63
2018-03-22T01:40:45.072Z,1.50
2018-03-22T01:43:11.634Z,1.57
2018-03-22T01:45:37.922Z,1.37
2018-03-22T01:48:04.246Z,1.67
2018-03-22T01:50:30.644Z,1.67
2018-03-22T01:53:09.254Z,1.63
2018-03-22T01:55:35.821Z,1.70
2018-03-22T01:58:02.125Z,1.30
2018-03-22T02:00:28.601Z,1.70
2018-03-22T02:02:54.921Z,1.40
2018-03-22T02:05:21.466Z,1.70
2018-03-22T02:07:48.048Z,1.40
2018-03-22T02:10:14.428Z,1.50
2018-03-22T02:12:40.968Z,1.40
2018-03-22T02:15:07.258Z,1.40
2018-03-22T02:17:33.570Z,1.60
2018-03-22T02:20:00.101Z,1.13
2018-03-22T02:22:26.353Z,1.23
2018-03-22T02:24:52.985Z,1.27
2018-03-22T02:27:19.272Z,1.47
2018-03-22T02:29:45.542Z,1.60
2018-03-22T02:32:12.194Z,1.37
2018-03-22T02:34:38.452Z,1.67
2018-03-22T02:37:04.889Z,1.47
2018-03-22T02:39:31.193Z,1.60
2018-03-22T02:41:57.489Z,1.60
2018-03-22T02:44:24.076Z,1.60
2018-03-22T02:46:50.376Z,1.57
2018-03-22T02:49:16.904Z,1.70
2018-03-22T02:51:43.194Z,1.50
2018-03-22T02:54:10.003Z,2.00
2018-03-22T02:56:36.450Z,1.90
2018-03-22T02:59:02.854Z,1.83
2018-03-22T03:01:29.629Z,1.50
2018-03-22T03:03:55.905Z,1.80
2018-03-22T03:06:22.257Z,1.60
2018-03-22T03:08:48.680Z,1.80
2018-03-22T03:11:14.928Z,2.00
2018-03-22T03:13:41.553Z,1.37
2018-03-22T03:16:07.888Z,1.53
2018-03-22T03:18:34.215Z,2.13
2018-03-22T03:21:00.657Z,2.20
2018-03-22T03:23:26.966Z,1.67
2018-03-22T03:25:53.734Z,1.60
2018-03-22T03:28:20.013Z,1.57
2018-03-22T03:30:46.449Z,1.97
2018-03-22T03:33:12.865Z,1.87
2018-03-22T03:35:39.121Z,1.70
2018-03-22T03:38:05.639Z,1.60
2018-03-22T03:40:31.920Z,1.53
2018-03-22T03:42:58.194Z,1.80
2018-03-22T03:45:24.676Z,2.83
2018-03-22T03:47:50.933Z,2.23
2018-03-22T03:50:17.580Z,2.13
2018-03-22T03:52:43.887Z,2.30
2018-03-22T03:55:10.190Z,2.23
2018-03-22T03:57:36.628Z,2.03
2018-03-22T04:00:02.972Z,2.27
2018-03-22T04:02:29.560Z,2.50
2018-03-22T04:04:55.868Z,1.83
2018-03-22T04:07:22.214Z,2.30
2018-03-22T04:09:48.648Z,2.00
2018-03-22T04:12:14.920Z,1.93
2018-03-22T04:14:41.545Z,1.77
2018-03-22T04:17:07.821Z,2.10
2018-03-22T04:19:34.068Z,2.00
2018-03-22T04:22:00.585Z,2.10
2018-03-22T04:24:26.848Z,2.20
2018-03-22T04:26:53.484Z,2.87
2018-03-22T04:29:19.748Z,1.77
2018-03-22T04:31:45.989Z,2.17
2018-03-22T04:34:12.533Z,2.30
2018-03-22T04:36:38.808Z,3.20
2018-03-22T04:39:05.294Z,2.43
2018-03-22T04:41:31.560Z,2.90
2018-03-22T04:43:57.842Z,3.00
2018-03-22T04:46:24.447Z,3.37
2018-03-22T04:48:50.694Z,3.07
2018-03-22T04:51:17.242Z,3.40
2018-03-22T04:53:43.510Z,3.60
2018-03-22T04:56:09.764Z,3.47
2018-03-22T04:58:36.362Z,3.70
2018-03-22T05:01:02.639Z,3.37
2018-03-22T05:03:29.109Z,4.30
2018-03-22T05:05:55.504Z,3.53
2018-03-22T05:08:21.763Z,4.20
2018-03-22T05:10:48.284Z,3.80
2018-03-22T05:13:14.614Z,3.30
2018-03-22T05:15:41.073Z,4.20
2018-03-22T05:18:07.349Z,3.60
2018-03-22T05:20:33.632Z,3.40
2018-03-22T05:23:00.245Z,3.53
2018-03-22T05:25:26.530Z,4.07
2018-03-22T05:27:53.009Z,3.70
2018-03-22T05:30:19.280Z,4.00
2018-03-22T05:32:45.554Z,5.10
2018-03-22T05:35:12.148Z,4.20
2018-03-22T05:37:38.397Z,4.47
2018-03-22T05:40:04.752Z,4.27
2018-03-22T05:42:31.191Z,4.70
2018-03-22T05:44:57.441Z,4.67
2018-03-22T05:47:24.033Z,4.77
2018-03-22T05:49:50.328Z,5.13
2018-03-22T05:52:16.673Z,4.97
2018-03-22T05:54:43.128Z,4.73
2018-03-22T05:57:10.665Z,4.90
2018-03-22T05:59:37.121Z,4.37
2018-03-22T06:02:03.422Z,4.50
2018-03-22T06:04:30.169Z,4.40
2018-03-22T06:06:56.425Z,4.40
2018-03-22T06:09:22.740Z,3.93
2018-03-22T06:11:49.183Z,3.87
2018-03-22T06:14:15.425Z,3.60
2018-03-22T06:16:42.062Z,3.83
2018-03-22T06:19:08.334Z,3.67
2018-03-22T06:21:34.634Z,3.40
2018-03-22T06:24:01.072Z,3.33
2018-03-22T06:26:27.351Z,3.63
2018-03-22T06:28:53.918Z,3.47
2018-03-22T06:31:20.157Z,3.67
2018-03-22T06:33:46.423Z,4.00
2018-03-22T06:36:12.988Z,3.53
2018-03-22T06:38:39.231Z,5.73
2018-03-22T06:41:05.862Z,5.53
2018-03-22T06:43:32.174Z,5.33
2018-03-22T06:45:58.569Z,3.97
2018-03-22T06:48:25.075Z,4.27
2018-03-22T06:50:51.312Z,5.03
2018-03-22T06:53:17.897Z,5.53
2018-03-22T06:55:44.389Z,4.93
2018-03-22T06:58:10.623Z,5.37
2018-03-22T07:00:37.026Z,5.00
2018-03-22T07:03:03.302Z,5.20
2018-03-22T07:05:29.769Z,4.93
2018-03-22T07:07:56.020Z,5.20
2018-03-22T07:10:22.317Z,5.77
2018-03-22T07:12:48.870Z,4.73
2018-03-22T07:15:15.118Z,4.40
2018-03-22T07:17:41.706Z,5.77
2018-03-22T07:20:07.961Z,5.13
2018-03-22T07:22:34.197Z,4.57
2018-03-22T07:25:00.764Z,4.40
2018-03-22T07:27:27.001Z,4.73
2018-03-22T07:29:53.331Z,5.63
2018-03-22T07:32:19.672Z,4.60
2018-03-22T07:34:45.973Z,5.67
2018-03-22T07:37:12.543Z,4.73
2018-03-22T07:39:38.870Z,5.57
2018-03-22T07:42:05.256Z,4.70
2018-03-22T07:44:37.608Z,7.17
2018-03-22T07:47:04.136Z,5.43
2018-03-22T07:49:30.817Z,6.17
2018-03-22T07:51:57.089Z,6.33
2018-03-22T07:54:24.591Z,6.33
2018-03-22T07:56:50.880Z,6.23
2018-03-22T07:59:17.492Z,6.27
2018-03-22T08:01:43.875Z,6.67
2018-03-22T08:04:10.177Z,6.10
2018-03-22T08:06:36.839Z,5.80
2018-03-22T08:09:03.202Z,6.70
2018-03-22T08:11:29.754Z,6.17
2018-03-22T08:13:56.029Z,5.30
2018-03-22T08:16:22.351Z,6.47
2018-03-22T08:18:49.028Z,6.60
2018-03-22T08:21:15.281Z,6.80
2018-03-22T08:23:41.891Z,6.93
2018-03-22T08:26:08.201Z,7.40
2018-03-22T08:28:34.457Z,5.70
2018-03-22T08:31:01.002Z,9.73
2018-03-22T08:33:27.417Z,7.20
2018-03-22T08:35:54.120Z,6.57
2018-03-22T08:38:20.425Z,6.37
2018-03-22T08:40:46.712Z,6.93
2018-03-22T08:43:13.050Z,7.17
2018-03-22T08:45:39.357Z,6.90
2018-03-22T08:48:05.763Z,6.83
2018-03-22T08:50:32.021Z,6.87
2018-03-22T08:52:58.301Z,7.63
2018-03-22T08:55:24.936Z,8.63
2018-03-22T08:57:51.196Z,6.10
2018-03-22T09:00:17.829Z,7.70
2018-03-22T09:02:44.094Z,8.07
2018-03-22T09:05:10.369Z,8.30
2018-03-22T09:07:37.057Z,7.33
2018-03-22T09:10:03.352Z,8.10
2018-03-22T09:12:29.913Z,7.40
2018-03-22T09:14:56.225Z,7.67
2018-03-22T09:17:22.453Z,8.13
2018-03-22T09:19:48.729Z,7.67
2018-03-22T09:22:15.019Z,7.80
2018-03-22T09:24:41.425Z,9.03
2018-03-22T09:27:07.716Z,9.13
2018-03-22T09:29:34.009Z,8.10
2018-03-22T09:32:00.656Z,8.57
2018-03-22T09:34:26.928Z,8.40
2018-03-22T09:36:53.250Z,7.93
2018-03-22T09:39:19.745Z,9.70
2018-03-22T09:41:46.034Z,8.37
2018-03-22T09:44:12.673Z,9.30
2018-03-22T09:46:38.949Z,9.20
2018-03-22T09:49:06.236Z,8.33
2018-03-22T09:51:32.558Z,8.90
2018-03-22T09:53:58.850Z,7.77
2018-03-22T09:56:25.191Z,8.50
2018-03-22T09:58:51.468Z,6.90
2018-03-22T10:01:17.717Z,8.60
2018-03-22T10:03:43.974Z,7.47
2018-03-22T10:06:10.277Z,5.87
2018-03-22T10:08:36.565Z,8.40
2018-03-22T10:11:02.810Z,7.93
2018-03-22T10:13:29.084Z,8.27
2018-03-22T10:15:55.336Z,9.97
2018-03-22T10:18:21.592Z,8.00
2018-03-22T10:20:47.865Z,9.07
2018-03-22T10:23:14.129Z,7.93
2018-03-22T10:25:40.380Z,9.90
2018-03-22T10:28:06.710Z,9.10
2018-03-22T10:30:32.947Z,10.97
2018-03-22T10:32:59.268Z,10.37
2018-03-22T10:35:25.605Z,9.47
2018-03-22T10:37:52.071Z,9.00
2018-03-22T10:40:18.398Z,9.93
2018-03-22T10:42:44.736Z,8.43
2018-03-22T10:45:11.004Z,9.23
2018-03-22T10:47:37.288Z,10.37
2018-03-22T10:50:03.592Z,8.67
2018-03-22T10:52:30.096Z,10.13
2018-03-22T10:54:56.462Z,9.47
2018-03-22T10:57:23.115Z,10.37
2018-03-22T10:59:49.396Z,11.07
2018-03-22T11:05:13.548Z,9.70
2018-03-22T11:07:39.847Z,10.17
2018-03-22T11:10:06.145Z,11.33
2018-03-22T11:12:32.425Z,8.97
2018-03-22T11:14:58.720Z,7.80
2018-03-22T11:17:24.973Z,10.20
2018-03-22T11:19:51.290Z,10.23
2018-03-22T11:22:17.544Z,8.73
2018-03-22T11:24:43.797Z,9.90
2018-03-22T11:27:10.044Z,10.23
2018-03-22T11:29:36.335Z,9.60
2018-03-22T11:32:02.599Z,9.77
2018-03-22T11:34:28.861Z,10.63
2018-03-22T11:36:55.323Z,9.87
2018-03-22T11:39:21.594Z,9.13
2018-03-22T11:41:47.875Z,9.27
2018-03-22T11:44:14.238Z,8.00
2018-03-22T11:46:40.633Z,10.57
2018-03-22T11:49:08.946Z,9.80
2018-03-22T11:51:35.226Z,10.93
2018-03-22T11:54:01.492Z,9.37
2018-03-22T11:56:27.861Z,9.27
2018-03-22T11:58:54.092Z,10.83
2018-03-22T12:01:20.332Z,10.03
2018-03-22T12:03:46.613Z,9.57
2018-03-22T12:06:12.910Z,9.93
2018-03-22T12:08:39.168Z,10.27
2018-03-22T12:11:05.461Z,9.87
2018-03-22T12:13:31.872Z,9.73
2018-03-22T12:15:58.118Z,10.70
2018-03-22T12:18:24.408Z,9.80
2018-03-22T12:20:50.694Z,9.27
2018-03-22T12:23:16.925Z,9.50
2018-03-22T12:25:43.193Z,8.90
2018-03-22T12:28:09.477Z,9.43
2018-03-22T12:30:35.798Z,9.40
2018-03-22T12:33:02.059Z,9.50
2018-03-22T12:35:28.556Z,9.47
2018-03-22T12:37:54.820Z,9.77
2018-03-22T12:40:21.178Z,8.20
2018-03-22T12:42:47.510Z,10.80
2018-03-22T12:45:13.820Z,10.63
2018-03-22T12:47:40.048Z,8.67
2018-03-22T12:50:06.321Z,8.97
2018-03-22T12:52:32.693Z,9.00
2018-03-22T12:54:58.929Z,9.70
2018-03-22T12:57:25.216Z,9.60
2018-03-22T12:59:51.512Z,9.57
2018-03-22T13:02:17.811Z,10.27
2018-03-22T13:04:44.124Z,10.37
2018-03-22T13:07:10.369Z,11.83
2018-03-22T13:09:36.629Z,10.07
2018-03-22T13:12:02.907Z,7.67
2018-03-22T13:14:29.175Z,10.53
2018-03-22T13:16:55.430Z,11.77
2018-03-22T13:19:21.722Z,11.37
2018-03-22T13:21:47.991Z,10.60
2018-03-22T13:24:14.298Z,12.20
2018-03-22T13:26:40.575Z,11.60
2018-03-22T13:29:06.813Z,12.10
2018-03-22T13:31:33.042Z,12.80
2018-03-22T13:33:59.315Z,12.13
2018-03-22T13:36:25.605Z,8.60
2018-03-22T13:38:51.941Z,10.37
2018-03-22T13:41:18.215Z,19.60
2018-03-22T13:43:44.480Z,12.37
2018-03-22T13:46:10.706Z,11.40
2018-03-22T13:48:36.990Z,12.60
2018-03-22T13:51:03.238Z,11.50
2018-03-22T13:53:29.478Z,11.80
2018-03-22T13:55:55.780Z,10.83
2018-03-22T13:58:22.021Z,11.93
2018-03-22T14:00:48.260Z,11.17
2018-03-22T14:03:14.555Z,11.10
2018-03-22T14:05:40.816Z,10.87
2018-03-22T14:08:07.082Z,10.97
2018-03-22T14:10:33.385Z,11.53
2018-03-22T14:12:59.628Z,11.27
2018-03-22T14:15:25.884Z,12.53
2018-03-22T14:17:52.190Z,10.80
2018-03-22T14:20:18.436Z,10.40
2018-03-22T14:22:44.713Z,10.67
2018-03-22T14:25:11.001Z,11.57
2018-03-22T14:27:37.268Z,11.67
2018-03-22T14:30:03.570Z,12.00
2018-03-22T14:32:29.884Z,12.03
2018-03-22T14:34:56.131Z,11.17
2018-03-22T14:37:22.491Z,11.97
2018-03-22T14:39:48.813Z,9.93
2018-03-22T14:42:15.095Z,10.77
2018-03-22T14:44:41.363Z,10.57
2018-03-22T14:47:07.712Z,12.13
2018-03-22T14:49:34.021Z,11.47
2018-03-22T14:52:00.301Z,12.33
2018-03-22T14:54:26.667Z,11.87
2018-03-22T14:56:53.182Z,11.00
2018-03-22T14:59:19.465Z,12.20
2018-03-22T15:01:45.768Z,12.30
2018-03-22T15:04:12.044Z,11.53
2018-03-22T15:06:38.627Z,11.57
2018-03-22T15:09:05.371Z,10.87
2018-03-22T15:11:31.746Z,11.60
2018-03-22T15:13:58.270Z,10.30
2018-03-22T15:16:24.613Z,10.70
2018-03-22T15:18:51.146Z,10.77
2018-03-22T15:21:17.558Z,11.27
2018-03-22T15:23:44.141Z,10.57
2018-03-22T15:26:10.697Z,12.17
2018-03-22T15:28:37.496Z,8.93
2018-03-22T15:31:03.825Z,12.17
2018-03-22T15:33:30.250Z,11.87
2018-03-22T15:35:57.181Z,16.77
2018-03-22T15:38:23.730Z,12.57
2018-03-22T15:40:50.119Z,12.10
2018-03-22T15:43:16.656Z,11.97
2018-03-22T15:45:43.187Z,11.77
2018-03-22T15:48:09.481Z,12.17
2018-03-22T15:50:35.758Z,10.33
2018-03-22T15:53:02.037Z,11.93
2018-03-22T15:55:28.327Z,12.00
2018-03-22T15:57:54.607Z,10.97
2018-03-22T16:00:20.879Z,11.70
2018-03-22T16:02:47.254Z,12.17
2018-03-22T16:05:13.545Z,12.77
2018-03-22T16:07:39.823Z,12.83
2018-03-22T16:10:06.089Z,12.53
2018-03-22T16:12:32.353Z,11.87
2018-03-22T16:14:58.640Z,11.87
2018-03-22T16:17:24.900Z,12.20
2018-03-22T16:19:51.178Z,13.00
2018-03-22T16:22:17.477Z,13.03
2018-03-22T16:24:43.717Z,12.30
2018-03-22T16:27:09.965Z,12.30
2018-03-22T16:29:36.253Z,12.40
2018-03-22T16:32:02.492Z,13.10
2018-03-22T16:34:28.776Z,12.10
2018-03-22T16:36:55.063Z,12.00
2018-03-22T16:39:21.324Z,11.23
2018-03-22T16:41:47.723Z,12.67
2018-03-22T16:44:14.030Z,12.60
2018-03-22T16:46:40.389Z,11.40
2018-03-22T16:49:06.693Z,12.20
2018-03-22T16:51:33.069Z,23.87
2018-03-22T16:53:59.401Z,12.50
2018-03-22T16:56:25.684Z,12.07
2018-03-22T16:58:52.100Z,12.33
2018-03-22T17:01:18.346Z,12.37
2018-03-22T17:03:44.722Z,12.43
2018-03-22T17:06:11.001Z,12.50
2018-03-22T17:08:37.388Z,12.43
2018-03-22T17:11:03.666Z,12.37
2018-03-22T17:13:30.201Z,14.70
2018-03-22T17:15:56.553Z,11.37
2018-03-22T17:18:22.852Z,12.93
2018-03-22T17:20:49.172Z,14.00
2018-03-22T17:23:15.685Z,13.67
2018-03-22T17:25:42.250Z,12.27
2018-03-22T17:28:08.871Z,14.20
2018-03-22T17:30:35.156Z,14.03
2018-03-22T17:33:01.434Z,17.47
2018-03-22T17:35:27.713Z,12.73
2018-03-22T17:37:53.961Z,13.10
2018-03-22T17:40:20.302Z,12.53
2018-03-22T17:42:46.614Z,11.73
2018-03-22T17:45:12.865Z,13.27
2018-03-22T17:47:39.217Z,13.33
2018-03-22T17:50:05.532Z,13.60
2018-03-22T17:52:31.776Z,11.40
2018-03-22T17:54:58.050Z,13.37
2018-03-22T17:57:24.330Z,14.23
2018-03-22T17:59:50.605Z,13.57
2018-03-22T18:02:16.855Z,12.83
2018-03-22T18:04:43.141Z,13.27
2018-03-22T18:07:09.402Z,13.87
2018-03-22T18:09:35.662Z,14.57
2018-03-22T18:12:01.966Z,13.83
2018-03-22T18:14:28.240Z,13.10
2018-03-22T18:16:54.486Z,13.27
2018-03-22T18:19:20.784Z,15.10
2018-03-22T18:21:47.090Z,14.00
2018-03-22T18:24:13.348Z,13.27
2018-03-22T18:26:39.628Z,14.10
2018-03-22T18:29:05.897Z,15.77
2018-03-22T18:31:32.144Z,14.00
2018-03-22T18:33:58.452Z,14.33
2018-03-22T18:36:24.749Z,13.90
2018-03-22T18:38:50.997Z,13.83
2018-03-22T18:41:17.303Z,15.03
2018-03-22T18:43:43.540Z,14.30
2018-03-22T18:46:09.778Z,13.93
2018-03-22T18:48:36.068Z,14.17
2018-03-22T18:51:02.306Z,14.30
2018-03-22T18:53:28.555Z,14.53
2018-03-22T18:55:54.844Z,14.10
2018-03-22T18:58:21.181Z,15.03
2018-03-22T19:00:47.445Z,14.60
2018-03-22T19:03:13.730Z,15.63
2018-03-22T19:05:40.014Z,15.60
2018-03-22T19:08:06.276Z,14.63
2018-03-22T19:10:32.552Z,13.97
2018-03-22T19:12:58.834Z,13.90
2018-03-22T19:15:25.156Z,15.57
2018-03-22T19:17:51.447Z,13.77
2018-03-22T19:20:17.716Z,16.57
2018-03-22T19:22:44.020Z,15.30
2018-03-22T19:25:10.302Z,15.67
2018-03-22T19:27:36.592Z,15.10
2018-03-22T19:30:03.029Z,14.83
2018-03-22T19:32:29.309Z,13.90
2018-03-22T19:34:55.548Z,13.77
2018-03-22T19:37:22.050Z,15.03
2018-03-22T19:39:48.370Z,14.90
2018-03-22T19:42:14.621Z,14.23
2018-03-22T19:44:40.869Z,15.37
2018-03-22T19:47:07.147Z,15.43
2018-03-22T19:49:33.422Z,14.03
2018-03-22T19:51:59.674Z,14.63
2018-03-22T19:54:25.953Z,13.60
2018-03-22T19:56:52.224Z,15.27
2018-03-22T19:59:18.513Z,15.63
2018-03-22T20:01:44.801Z,15.00
2018-03-22T20:04:11.207Z,15.43
2018-03-22T20:06:37.449Z,14.77
2018-03-22T20:09:03.776Z,14.83
2018-03-22T20:11:30.044Z,14.30
2018-03-22T20:13:56.290Z,13.43
2018-03-22T20:16:22.602Z,14.20
2018-03-22T20:18:48.849Z,13.60
2018-03-22T20:21:15.134Z,14.07
2018-03-22T20:23:41.408Z,14.40
2018-03-22T20:26:07.665Z,14.73
2018-03-22T20:28:34.253Z,14.83
2018-03-22T20:31:00.538Z,13.27
2018-03-22T20:33:26.792Z,14.90
2018-03-22T20:35:53.053Z,13.93
2018-03-22T20:38:19.321Z,12.13
2018-03-22T20:40:45.578Z,13.70
2018-03-22T20:43:11.828Z,13.30
2018-03-22T20:45:38.233Z,13.43
2018-03-22T20:48:04.503Z,14.50
2018-03-22T20:50:30.772Z,14.50
2018-03-22T20:52:57.094Z,13.73
2018-03-22T20:55:23.753Z,13.40
2018-03-22T20:57:50.021Z,13.00
2018-03-22T21:00:16.739Z,12.63
2018-03-22T21:02:43.055Z,14.20
2018-03-22T21:05:09.305Z,13.13
2018-03-22T21:07:35.584Z,13.10
2018-03-22T21:10:01.887Z,13.53
2018-03-22T21:12:28.165Z,13.93
2018-03-22T21:14:54.819Z,12.50
2018-03-22T21:17:21.081Z,13.23
2018-03-22T21:19:47.377Z,13.57
2018-03-22T21:22:13.662Z,14.20
2018-03-22T21:24:39.944Z,13.87
2018-03-22T21:27:06.205Z,13.97
2018-03-22T21:29:32.513Z,13.63
2018-03-22T21:31:58.778Z,12.70
2018-03-22T21:34:25.021Z,13.50
2018-03-22T21:36:51.325Z,14.30
2018-03-22T21:39:17.609Z,13.40
2018-03-22T21:41:56.034Z,11.57
2018-03-22T21:44:22.297Z,13.23
2018-03-22T21:46:48.542Z,13.10
2018-03-22T21:49:14.827Z,13.47
2018-03-22T21:51:41.121Z,13.20
2018-03-22T21:54:07.471Z,13.20
2018-03-22T21:56:33.773Z,14.00
2018-03-22T21:59:00.049Z,13.17
2018-03-22T22:01:26.342Z,14.60
2018-03-22T22:03:52.720Z,13.90
2018-03-22T22:06:18.977Z,13.23
2018-03-22T22:08:45.255Z,13.90
2018-03-22T22:11:11.817Z,13.83
2018-03-22T22:13:38.078Z,13.97
2018-03-22T22:16:04.388Z,13.13
2018-03-22T22:18:30.652Z,15.03
2018-03-22T22:20:57.089Z,13.27
2018-03-22T22:23:23.775Z,13.90
2018-03-22T22:25:50.406Z,13.17
2018-03-22T22:28:16.677Z,14.17
2018-03-22T22:30:43.241Z,13.13
2018-03-22T22:33:09.615Z,15.17
2018-03-22T22:35:36.064Z,14.40
2018-03-22T22:38:02.413Z,14.37
2018-03-22T22:40:28.938Z,14.07
2018-03-22T22:42:55.367Z,15.60
2018-03-22T22:45:21.650Z,12.90
2018-03-22T22:47:47.946Z,13.27
2018-03-22T22:50:14.266Z,13.67
2018-03-22T22:52:40.552Z,13.90
2018-03-22T22:55:06.873Z,14.77
2018-03-22T22:57:33.136Z,13.53
2018-03-22T22:59:59.373Z,13.80
2018-03-22T23:02:25.757Z,14.13
2018-03-22T23:04:52.013Z,13.90
2018-03-22T23:07:18.337Z,14.63
2018-03-22T23:09:44.821Z,13.07
2018-03-22T23:12:11.101Z,13.63
2018-03-22T23:14:37.365Z,13.03
2018-03-22T23:17:04.125Z,13.47
2018-03-22T23:19:30.620Z,13.43
2018-03-22T23:21:56.921Z,14.23
2018-03-22T23:24:23.380Z,14.27
2018-03-22T23:26:49.752Z,14.60
2018-03-22T23:29:16.244Z,14.27
2018-03-22T23:31:43.068Z,13.40
2018-03-22T23:34:09.328Z,13.37
2018-03-22T23:36:35.971Z,14.37
2018-03-22T23:39:02.368Z,12.90
2018-03-22T23:41:28.918Z,14.50
2018-03-22T23:43:55.306Z,13.30
2018-03-22T23:46:21.894Z,13.77
2018-03-22T23:48:48.477Z,13.50
2018-03-22T23:51:14.746Z,13.93
2018-03-22T23:53:41.233Z,13.23
2018-03-22T23:56:07.490Z,12.27
2018-03-22T23:58:34.150Z,13.30
